Terminal Aerodrome Forecast
Issued by NWS

Home | Current Version | Previous Version | Graphics & Text | Print | Product List | Glossary On
Versions: 1 2 3 4 5 6 7 8 9 10 11 12 13 14 15 16 17 18
000
FTUS43 KBIS 312339
TAFJMS
TAF
KJMS 312339Z 0100/0124 17014G21KT P6SM SCT050
      TEMPO 0100/0102 P6SM -RA BKN040
     FM011500 16016G23KT P6SM SCT080=

USA.gov is the U.S. government's official web portal to all federal, state and local government web resources and services.